Time;durP1;ratioP1;P1;durP2;ratioP2;P2;SDS_P1;SDS_P2;PMS_P1;PMS_P2;Temp;Humidity;BMP_temperature;BMP_pressure;BME280_temperature;BME280_humidity;BME280_pressure;Samples;Min_cycle;Max_cycle;Signal;HPM_P1;HPM_P2
2022/01/20 00:00:13;;;;;;;15.68;4.72;;;;;;;;;;5056498;28;20221;-79
2022/01/20 00:02:40;;;;;;;10.10;4.45;;;;;;;;;;5056642;28;20296;-80
2022/01/20 00:05:24;;;;;;;7.90;3.60;;;;;;;;;;5056712;28;20284;-79
2022/01/20 00:08:05;;;;;;;8.43;5.70;;;;;;;;;;5056651;28;20244;-79
2022/01/20 00:27:09;;;;;;;7.45;3.72;;;;;;;;;;5055947;28;20295;-79
2022/01/20 00:30:03;;;;;;;13.73;4.13;;;;;;;;;;5055556;28;20665;-80
2022/01/20 00:32:40;;;;;;;6.05;3.75;;;;;;;;;;5054780;28;20247;-79
2022/01/20 00:35:19;;;;;;;8.68;4.35;;;;;;;;;;5055809;28;20220;-79
2022/01/20 00:37:45;;;;;;;9.52;3.50;;;;;;;;;;5055731;28;20232;-79
2022/01/20 00:40:14;;;;;;;8.20;3.55;;;;;;;;;;5055636;28;20225;-79
2022/01/20 00:42:41;;;;;;;7.85;3.10;;;;;;;;;;5055171;28;20216;-79
2022/01/20 00:45:10;;;;;;;6.57;3.83;;;;;;;;;;5055297;28;20206;-79
2022/01/20 00:47:40;;;;;;;8.68;3.22;;;;;;;;;;5055256;28;20640;-79
2022/01/20 00:50:10;;;;;;;4.57;2.60;;;;;;;;;;5055409;28;20198;-79
2022/01/20 00:52:38;;;;;;;10.15;3.72;;;;;;;;;;5055815;28;20209;-80
2022/01/20 00:55:07;;;;;;;10.32;3.58;;;;;;;;;;5055175;28;20205;-78
2022/01/20 00:57:34;;;;;;;4.63;2.58;;;;;;;;;;5055293;28;20267;-79
2022/01/20 01:00:02;;;;;;;7.57;4.00;;;;;;;;;;5055553;28;20208;-79
2022/01/20 01:02:29;;;;;;;7.50;3.85;;;;;;;;;;5054575;28;20201;-79
2022/01/20 01:04:58;;;;;;;6.97;3.13;;;;;;;;;;5054861;28;20227;-79
2022/01/20 01:07:43;;;;;;;8.25;2.80;;;;;;;;;;5054237;28;20221;-79
2022/01/20 01:10:13;;;;;;;4.75;3.03;;;;;;;;;;5054894;28;20729;-79
2022/01/20 01:12:47;;;;;;;9.20;3.78;;;;;;;;;;5054683;28;20208;-79
2022/01/20 01:15:19;;;;;;;9.57;4.32;;;;;;;;;;5054817;28;20200;-79
2022/01/20 01:20:46;;;;;;;8.25;3.65;;;;;;;;;;5054681;28;20747;-79
2022/01/20 01:23:14;;;;;;;11.45;3.97;;;;;;;;;;5054508;28;20647;-78
2022/01/20 01:25:41;;;;;;;16.15;5.63;;;;;;;;;;5054122;28;20260;-79
2022/01/20 01:28:08;;;;;;;13.57;3.55;;;;;;;;;;5054307;28;20226;-79
2022/01/20 01:30:56;;;;;;;11.82;3.72;;;;;;;;;;5054193;28;20221;-79
2022/01/20 01:33:25;;;;;;;5.70;2.67;;;;;;;;;;5054849;28;20696;-79
2022/01/20 01:35:56;;;;;;;14.95;4.28;;;;;;;;;;5054329;28;20204;-79
2022/01/20 01:38:35;;;;;;;8.38;3.53;;;;;;;;;;5054553;28;20221;-79
2022/01/20 01:41:03;;;;;;;6.80;2.85;;;;;;;;;;5054194;28;20221;-78
2022/01/20 01:43:32;;;;;;;14.00;4.13;;;;;;;;;;5054330;28;20217;-79
2022/01/20 01:46:00;;;;;;;11.13;3.65;;;;;;;;;;5054627;28;20202;-79
2022/01/20 01:48:28;;;;;;;8.18;3.28;;;;;;;;;;5054254;28;20222;-78
2022/01/20 01:50:59;;;;;;;9.80;4.85;;;;;;;;;;5053896;28;20216;-79
2022/01/20 01:53:27;;;;;;;6.68;3.75;;;;;;;;;;5054053;28;20207;-79
2022/01/20 01:55:54;;;;;;;6.68;3.58;;;;;;;;;;5054039;28;20204;-78
2022/01/20 01:58:22;;;;;;;7.63;3.47;;;;;;;;;;5054142;28;20221;-79
2022/01/20 02:00:49;;;;;;;14.00;3.17;;;;;;;;;;5054046;28;20229;-80
2022/01/20 02:03:16;;;;;;;10.30;3.85;;;;;;;;;;5053024;28;20247;-79
2022/01/20 02:05:58;;;;;;;4.85;2.53;;;;;;;;;;5054053;28;20206;-79
2022/01/20 02:08:31;;;;;;;10.82;4.15;;;;;;;;;;5053895;28;20265;-79
2022/01/20 02:19:15;;;;;;;9.25;2.80;;;;;;;;;;5053539;28;20201;-78
2022/01/20 02:21:56;;;;;;;6.82;2.55;;;;;;;;;;5052943;28;20225;-79
2022/01/20 02:24:24;;;;;;;10.50;4.05;;;;;;;;;;5053493;28;20212;-78
2022/01/20 02:26:51;;;;;;;7.72;3.28;;;;;;;;;;5053946;28;20197;-79
2022/01/20 02:29:19;;;;;;;12.20;3.00;;;;;;;;;;5053602;28;20206;-79
2022/01/20 02:31:54;;;;;;;7.85;3.63;;;;;;;;;;5053282;28;20194;-79
2022/01/20 02:34:23;;;;;;;10.50;3.47;;;;;;;;;;5053388;28;20625;-79
2022/01/20 02:36:51;;;;;;;8.68;3.55;;;;;;;;;;5053268;28;20205;-79
2022/01/20 02:39:47;;;;;;;9.50;3.60;;;;;;;;;;5053784;28;20229;-78
2022/01/20 02:45:05;;;;;;;9.07;2.90;;;;;;;;;;5052955;28;20216;-79
2022/01/20 02:47:34;;;;;;;7.55;3.13;;;;;;;;;;5052573;28;20271;-79
2022/01/20 02:50:02;;;;;;;9.00;4.07;;;;;;;;;;5052991;28;20259;-78
2022/01/20 02:52:31;;;;;;;9.18;3.42;;;;;;;;;;5052754;28;20201;-79
2022/01/20 02:54:58;;;;;;;13.85;3.97;;;;;;;;;;5052878;28;20575;-79
2022/01/20 02:57:26;;;;;;;19.75;3.90;;;;;;;;;;5052538;28;20233;-79
2022/01/20 02:59:53;;;;;;;11.30;3.88;;;;;;;;;;5053298;28;20205;-79
2022/01/20 03:02:20;;;;;;;7.88;2.80;;;;;;;;;;5052566;28;20225;-79
2022/01/20 03:04:49;;;;;;;9.50;3.45;;;;;;;;;;5052467;28;20197;-78
2022/01/20 03:07:17;;;;;;;9.57;3.03;;;;;;;;;;5052793;28;20677;-78
2022/01/20 03:09:45;;;;;;;6.70;3.13;;;;;;;;;;5052446;28;20642;-78
2022/01/20 03:12:12;;;;;;;7.97;2.17;;;;;;;;;;5052699;28;20201;-79
2022/01/20 03:14:40;;;;;;;8.82;3.30;;;;;;;;;;5052676;28;20630;-79
2022/01/20 03:17:07;;;;;;;10.07;4.47;;;;;;;;;;5052738;28;20222;-78
2022/01/20 03:19:34;;;;;;;8.35;3.65;;;;;;;;;;5052728;28;20201;-80
2022/01/20 03:22:02;;;;;;;11.65;3.30;;;;;;;;;;5052921;28;20232;-79
2022/01/20 03:24:29;;;;;;;9.13;2.35;;;;;;;;;;5056462;28;20201;-79
2022/01/20 03:26:58;;;;;;;5.38;2.15;;;;;;;;;;5056899;28;20228;-79
2022/01/20 03:29:25;;;;;;;11.35;3.50;;;;;;;;;;5056303;28;20259;-79
2022/01/20 03:31:52;;;;;;;7.78;3.20;;;;;;;;;;5056647;28;20202;-79
2022/01/20 03:34:21;;;;;;;7.22;2.83;;;;;;;;;;5056212;28;20251;-78
2022/01/20 03:36:49;;;;;;;9.43;3.97;;;;;;;;;;5056414;28;20239;-78
2022/01/20 03:39:16;;;;;;;5.72;2.85;;;;;;;;;;5056719;28;20194;-79
2022/01/20 03:41:44;;;;;;;6.70;2.42;;;;;;;;;;5056414;28;20229;-79
2022/01/20 03:44:13;;;;;;;4.45;2.65;;;;;;;;;;5060810;28;20689;-79
2022/01/20 03:46:40;;;;;;;5.40;2.45;;;;;;;;;;5058284;28;20202;-79
2022/01/20 03:49:11;;;;;;;8.88;2.97;;;;;;;;;;5059364;28;20209;-79
2022/01/20 03:51:38;;;;;;;6.75;2.22;;;;;;;;;;5058533;28;20211;-80
2022/01/20 03:54:06;;;;;;;4.18;2.63;;;;;;;;;;5057176;28;20190;-80
2022/01/20 03:56:34;;;;;;;5.78;2.38;;;;;;;;;;5056736;28;20209;-80
2022/01/20 03:59:01;;;;;;;4.97;1.70;;;;;;;;;;5056564;28;20221;-79
2022/01/20 04:01:30;;;;;;;3.30;2.13;;;;;;;;;;5055890;28;20206;-79
2022/01/20 04:03:57;;;;;;;7.53;2.85;;;;;;;;;;5055955;28;20666;-80
2022/01/20 04:06:27;;;;;;;9.40;2.30;;;;;;;;;;5056209;28;20201;-79
2022/01/20 04:08:55;;;;;;;4.30;1.90;;;;;;;;;;5056469;28;20228;-80
2022/01/20 04:11:25;;;;;;;4.53;1.60;;;;;;;;;;5056274;28;20205;-80
2022/01/20 04:13:53;;;;;;;11.70;3.75;;;;;;;;;;5056035;28;20591;-80
2022/01/20 04:16:33;;;;;;;4.63;2.05;;;;;;;;;;5056462;28;20286;-79
2022/01/20 04:19:04;;;;;;;5.53;1.92;;;;;;;;;;5056336;28;20267;-79
2022/01/20 04:21:32;;;;;;;2.70;2.08;;;;;;;;;;5056313;28;20255;-79
2022/01/20 04:24:02;;;;;;;4.07;1.65;;;;;;;;;;5055936;28;20279;-79
2022/01/20 04:26:30;;;;;;;2.55;1.65;;;;;;;;;;5056549;28;20198;-80
2022/01/20 04:28:58;;;;;;;4.15;1.90;;;;;;;;;;5055829;28;20223;-79
2022/01/20 04:31:27;;;;;;;3.60;1.73;;;;;;;;;;5056642;28;20201;-80
2022/01/20 04:33:56;;;;;;;9.55;3.30;;;;;;;;;;5055610;28;20205;-80
2022/01/20 04:36:26;;;;;;;6.82;2.35;;;;;;;;;;5055953;28;20696;-79
2022/01/20 04:38:54;;;;;;;4.55;2.08;;;;;;;;;;5056206;28;20620;-80
2022/01/20 04:41:22;;;;;;;6.95;2.30;;;;;;;;;;5056022;28;20221;-81
2022/01/20 04:43:49;;;;;;;4.40;2.22;;;;;;;;;;5055706;28;20232;-81
2022/01/20 04:46:24;;;;;;;3.30;1.60;;;;;;;;;;5056171;28;20201;-79
2022/01/20 04:49:08;;;;;;;2.70;2.35;;;;;;;;;;5056209;28;20228;-79
2022/01/20 04:57:16;;;;;;;3.72;1.73;;;;;;;;;;5055305;28;20240;-80
2022/01/20 04:59:45;;;;;;;6.40;2.33;;;;;;;;;;5055252;28;20661;-80
2022/01/20 05:02:13;;;;;;;2.80;1.60;;;;;;;;;;5055313;28;20355;-80
2022/01/20 05:04:40;;;;;;;3.97;2.25;;;;;;;;;;5055129;28;20553;-79
2022/01/20 05:07:17;;;;;;;4.70;2.15;;;;;;;;;;5057383;28;20233;-79
2022/01/20 05:09:44;;;;;;;6.97;4.18;;;;;;;;;;5055797;28;20288;-80
2022/01/20 05:12:15;;;;;;;8.70;2.25;;;;;;;;;;5054782;28;20677;-80
2022/01/20 05:14:43;;;;;;;7.20;2.08;;;;;;;;;;5055411;28;20236;-81
2022/01/20 05:17:10;;;;;;;4.03;1.95;;;;;;;;;;5055692;28;20221;-80
2022/01/20 05:19:37;;;;;;;3.88;1.77;;;;;;;;;;5055017;28;20224;-81
2022/01/20 05:22:05;;;;;;;5.72;1.90;;;;;;;;;;5055029;28;20209;-80
2022/01/20 05:24:33;;;;;;;4.22;1.92;;;;;;;;;;5054795;28;20295;-80
2022/01/20 05:27:01;;;;;;;6.07;1.98;;;;;;;;;;5054472;28;20221;-80
2022/01/20 05:29:28;;;;;;;7.53;2.70;;;;;;;;;;5054959;28;20232;-81
2022/01/20 05:31:56;;;;;;;1.48;1.30;;;;;;;;;;5055230;28;20206;-80
2022/01/20 05:34:23;;;;;;;2.83;1.63;;;;;;;;;;5054698;28;20259;-80
2022/01/20 05:36:50;;;;;;;3.28;1.70;;;;;;;;;;5054614;28;20231;-80
2022/01/20 05:39:18;;;;;;;4.20;1.70;;;;;;;;;;5054729;28;20213;-80
2022/01/20 05:41:47;;;;;;;3.97;1.48;;;;;;;;;;5056572;28;20279;-80
2022/01/20 05:44:14;;;;;;;3.90;2.17;;;;;;;;;;5054089;28;20217;-80
2022/01/20 05:46:46;;;;;;;2.63;1.95;;;;;;;;;;5053947;28;20568;-82
2022/01/20 05:49:20;;;;;;;3.63;1.73;;;;;;;;;;5054059;28;20237;-82
2022/01/20 05:51:49;;;;;;;3.58;1.67;;;;;;;;;;5053821;28;20201;-83
2022/01/20 05:54:17;;;;;;;4.18;1.50;;;;;;;;;;5054127;28;20205;-83
2022/01/20 05:56:46;;;;;;;4.15;1.30;;;;;;;;;;5053982;28;20353;-82
2022/01/20 05:59:13;;;;;;;2.35;1.50;;;;;;;;;;5055024;28;20228;-82
2022/01/20 06:01:41;;;;;;;3.60;1.45;;;;;;;;;;5053675;28;20209;-83
2022/01/20 06:04:09;;;;;;;4.10;1.60;;;;;;;;;;5053487;28;20221;-82
2022/01/20 06:06:37;;;;;;;8.13;2.40;;;;;;;;;;5053496;28;20208;-83
2022/01/20 06:09:05;;;;;;;4.65;1.92;;;;;;;;;;5053815;28;20259;-83
2022/01/20 06:11:33;;;;;;;4.28;2.55;;;;;;;;;;5054271;28;20202;-83
2022/01/20 06:14:01;;;;;;;4.28;1.75;;;;;;;;;;5053355;28;20205;-84
2022/01/20 06:16:29;;;;;;;7.43;1.83;;;;;;;;;;5055209;28;20206;-84
2022/01/20 06:18:56;;;;;;;5.57;2.35;;;;;;;;;;5054122;28;20228;-83
2022/01/20 06:21:23;;;;;;;2.53;1.70;;;;;;;;;;5055199;28;20209;-85
2022/01/20 06:23:51;;;;;;;5.13;1.75;;;;;;;;;;5053470;28;20611;-84
2022/01/20 06:26:19;;;;;;;8.13;1.95;;;;;;;;;;5053838;28;20198;-84
2022/01/20 06:28:46;;;;;;;7.18;3.03;;;;;;;;;;5054280;28;20222;-84
2022/01/20 06:31:16;;;;;;;4.53;2.03;;;;;;;;;;5053125;28;20205;-84
2022/01/20 06:33:44;;;;;;;8.68;2.00;;;;;;;;;;5052901;28;20255;-84
2022/01/20 06:36:11;;;;;;;3.75;1.58;;;;;;;;;;5054894;28;20636;-85
2022/01/20 06:38:38;;;;;;;5.55;1.98;;;;;;;;;;5052768;28;20275;-85
2022/01/20 06:41:06;;;;;;;7.72;2.55;;;;;;;;;;5053793;28;20209;-84
2022/01/20 06:43:33;;;;;;;6.57;1.70;;;;;;;;;;5053711;28;20225;-85
2022/01/20 06:46:01;;;;;;;3.15;1.50;;;;;;;;;;5053201;28;20228;-84
2022/01/20 06:48:30;;;;;;;5.22;1.50;;;;;;;;;;5053784;28;20308;-84
2022/01/20 06:51:00;;;;;;;6.30;2.28;;;;;;;;;;5053485;28;20688;-84
2022/01/20 06:53:27;;;;;;;7.82;1.80;;;;;;;;;;5053509;28;20216;-84
2022/01/20 06:55:54;;;;;;;10.18;3.90;;;;;;;;;;5053342;28;20280;-84
2022/01/20 06:58:23;;;;;;;5.47;1.80;;;;;;;;;;5053468;28;20220;-84
2022/01/20 07:00:50;;;;;;;4.97;2.70;;;;;;;;;;5053673;28;20205;-85
2022/01/20 07:03:18;;;;;;;6.97;2.63;;;;;;;;;;5053818;28;20208;-85
2022/01/20 07:05:46;;;;;;;8.68;2.72;;;;;;;;;;5054378;28;20216;-84
2022/01/20 07:08:18;;;;;;;9.05;2.40;;;;;;;;;;5053671;28;20733;-83
2022/01/20 07:10:45;;;;;;;5.95;2.25;;;;;;;;;;5054013;28;20267;-84
2022/01/20 07:13:12;;;;;;;10.07;2.97;;;;;;;;;;5053680;28;20209;-85
2022/01/20 07:15:40;;;;;;;7.85;2.50;;;;;;;;;;5053076;28;20202;-84
2022/01/20 07:18:07;;;;;;;7.72;2.78;;;;;;;;;;5053239;28;20619;-85
2022/01/20 07:20:34;;;;;;;15.23;2.90;;;;;;;;;;5053754;28;20246;-84
2022/01/20 07:23:03;;;;;;;10.95;2.97;;;;;;;;;;5051258;28;20364;-84
2022/01/20 07:25:31;;;;;;;6.20;2.22;;;;;;;;;;5052632;28;20222;-87
2022/01/20 07:27:58;;;;;;;7.38;2.25;;;;;;;;;;5053487;28;20693;-84
2022/01/20 07:30:26;;;;;;;7.22;2.05;;;;;;;;;;5053150;28;20224;-84
2022/01/20 07:32:53;;;;;;;7.10;2.50;;;;;;;;;;5053353;28;20213;-84
2022/01/20 07:35:20;;;;;;;8.20;2.00;;;;;;;;;;5052641;28;20193;-84
2022/01/20 07:37:48;;;;;;;5.93;2.60;;;;;;;;;;5052940;28;20237;-84
2022/01/20 07:40:17;;;;;;;9.13;2.80;;;;;;;;;;5053864;28;20197;-85
2022/01/20 07:42:44;;;;;;;9.23;3.45;;;;;;;;;;5052113;28;20213;-86
2022/01/20 07:45:12;;;;;;;5.60;1.95;;;;;;;;;;5053285;28;20225;-85
2022/01/20 07:47:40;;;;;;;6.18;2.60;;;;;;;;;;5053394;28;20222;-86
2022/01/20 07:50:08;;;;;;;12.65;3.10;;;;;;;;;;5053027;28;20202;-85
2022/01/20 07:52:35;;;;;;;4.50;2.35;;;;;;;;;;5052654;28;20657;-84
2022/01/20 07:55:03;;;;;;;6.35;2.15;;;;;;;;;;5052654;28;20605;-85
2022/01/20 07:57:32;;;;;;;4.50;1.98;;;;;;;;;;5052960;28;20710;-85
2022/01/20 08:00:02;;;;;;;13.07;3.35;;;;;;;;;;5053103;28;20206;-85
2022/01/20 08:02:29;;;;;;;6.97;3.53;;;;;;;;;;5052608;28;20198;-86
2022/01/20 08:04:56;;;;;;;6.13;2.53;;;;;;;;;;5052173;28;20217;-85
2022/01/20 08:07:24;;;;;;;6.47;2.20;;;;;;;;;;5052920;28;20232;-87
2022/01/20 08:09:57;;;;;;;9.32;3.72;;;;;;;;;;5056773;28;20206;-85
2022/01/20 08:12:24;;;;;;;5.40;2.42;;;;;;;;;;5056383;28;20661;-84
2022/01/20 08:14:53;;;;;;;11.88;3.75;;;;;;;;;;5056090;28;20197;-84
2022/01/20 08:17:21;;;;;;;5.35;3.17;;;;;;;;;;5055728;28;20218;-84
2022/01/20 08:19:49;;;;;;;6.72;2.30;;;;;;;;;;5055357;28;20209;-85
2022/01/20 08:22:16;;;;;;;4.72;2.40;;;;;;;;;;5055254;28;20205;-85
2022/01/20 08:24:51;;;;;;;5.18;3.50;;;;;;;;;;5055458;28;20230;-84
2022/01/20 08:27:20;;;;;;;5.82;2.90;;;;;;;;;;5055505;28;20340;-84
2022/01/20 08:29:48;;;;;;;12.02;3.58;;;;;;;;;;5055841;28;20204;-83
2022/01/20 08:32:16;;;;;;;14.05;4.70;;;;;;;;;;5054860;28;20198;-83
2022/01/20 08:34:44;;;;;;;4.78;2.30;;;;;;;;;;5055306;28;20205;-84
2022/01/20 08:37:11;;;;;;;6.40;3.15;;;;;;;;;;5055246;28;20218;-85
2022/01/20 08:39:42;;;;;;;6.20;2.20;;;;;;;;;;5054926;28;20255;-86
2022/01/20 08:42:10;;;;;;;5.05;2.65;;;;;;;;;;5054600;28;20709;-83
2022/01/20 08:44:38;;;;;;;5.45;2.45;;;;;;;;;;5055056;28;20225;-84
2022/01/20 08:47:14;;;;;;;8.82;2.45;;;;;;;;;;5055471;28;20221;-80
2022/01/20 08:49:42;;;;;;;8.73;2.33;;;;;;;;;;5054763;28;20228;-82
2022/01/20 08:52:10;;;;;;;5.30;2.42;;;;;;;;;;5054667;28;20202;-83
2022/01/20 08:54:38;;;;;;;7.90;2.58;;;;;;;;;;5054530;28;20205;-84
2022/01/20 08:57:06;;;;;;;5.40;2.25;;;;;;;;;;5054614;28;20226;-83
2022/01/20 08:59:33;;;;;;;6.88;2.97;;;;;;;;;;5054552;28;20201;-84
2022/01/20 09:02:01;;;;;;;10.40;2.95;;;;;;;;;;5054462;28;20210;-85
2022/01/20 09:04:28;;;;;;;11.23;3.03;;;;;;;;;;5054499;28;20323;-84
2022/01/20 09:06:57;;;;;;;12.13;3.75;;;;;;;;;;5054617;28;20197;-86
2022/01/20 09:09:24;;;;;;;8.00;3.47;;;;;;;;;;5055000;28;20197;-81
2022/01/20 09:12:04;;;;;;;5.80;2.28;;;;;;;;;;5054441;28;20238;-86
2022/01/20 09:17:17;;;;;;;6.15;2.05;;;;;;;;;;5054762;28;20224;-82
2022/01/20 09:19:44;;;;;;;7.57;2.85;;;;;;;;;;5052357;28;20576;-82
2022/01/20 09:22:13;;;;;;;4.85;2.40;;;;;;;;;;5053754;28;20202;-82
2022/01/20 09:24:40;;;;;;;3.97;2.42;;;;;;;;;;5053774;28;20682;-82
2022/01/20 09:27:07;;;;;;;6.78;2.30;;;;;;;;;;5053275;28;20732;-83
2022/01/20 09:29:35;;;;;;;6.63;2.85;;;;;;;;;;5054069;28;20629;-83
2022/01/20 09:32:04;;;;;;;8.77;2.33;;;;;;;;;;5054733;28;20198;-84
2022/01/20 09:34:32;;;;;;;7.93;2.28;;;;;;;;;;5054123;28;20205;-83
2022/01/20 09:36:59;;;;;;;4.15;2.60;;;;;;;;;;5053947;28;20892;-83
2022/01/20 09:39:28;;;;;;;5.95;2.88;;;;;;;;;;5053537;28;20617;-84
2022/01/20 09:41:55;;;;;;;6.80;2.33;;;;;;;;;;5052937;28;20590;-83
2022/01/20 09:44:23;;;;;;;7.32;3.00;;;;;;;;;;5053604;28;20210;-84
2022/01/20 09:46:50;;;;;;;5.72;3.65;;;;;;;;;;5053129;28;20275;-84
2022/01/20 09:49:18;;;;;;;7.18;2.90;;;;;;;;;;5053648;28;20210;-83
2022/01/20 09:51:45;;;;;;;6.63;2.45;;;;;;;;;;5053230;28;20205;-85
2022/01/20 09:54:13;;;;;;;6.95;2.22;;;;;;;;;;5053891;28;20197;-84
2022/01/20 09:56:44;;;;;;;5.93;3.05;;;;;;;;;;5053602;28;20205;-84
2022/01/20 09:59:12;;;;;;;5.55;3.50;;;;;;;;;;5053560;28;20289;-83
2022/01/20 10:01:43;;;;;;;6.40;3.47;;;;;;;;;;5053185;28;20662;-86
2022/01/20 10:04:21;;;;;;;5.50;2.10;;;;;;;;;;5053301;28;20225;-84
2022/01/20 10:07:00;;;;;;;9.25;2.53;;;;;;;;;;5053152;28;20596;-84
2022/01/20 10:09:30;;;;;;;4.47;2.15;;;;;;;;;;5053250;28;20212;-83
2022/01/20 10:11:59;;;;;;;6.28;2.30;;;;;;;;;;5052838;28;20216;-84
2022/01/20 10:14:26;;;;;;;4.45;2.75;;;;;;;;;;5053129;28;20256;-83
2022/01/20 10:16:53;;;;;;;3.28;2.17;;;;;;;;;;5052963;28;20206;-83
2022/01/20 10:19:27;;;;;;;5.32;2.65;;;;;;;;;;5052856;28;20212;-84
2022/01/20 10:21:54;;;;;;;5.88;2.20;;;;;;;;;;5052840;28;20292;-83
2022/01/20 10:24:26;;;;;;;5.53;2.15;;;;;;;;;;5052865;28;20239;-84
2022/01/20 10:26:53;;;;;;;8.05;2.63;;;;;;;;;;5052638;28;20677;-83
2022/01/20 10:29:21;;;;;;;6.05;1.98;;;;;;;;;;5052688;28;20816;-84
2022/01/20 10:31:51;;;;;;;4.60;2.45;;;;;;;;;;5051714;28;20202;-84
2022/01/20 10:34:28;;;;;;;7.47;2.83;;;;;;;;;;5052897;28;20212;-83
2022/01/20 10:36:59;;;;;;;7.68;2.25;;;;;;;;;;5053146;28;20247;-85
2022/01/20 10:39:30;;;;;;;9.85;3.90;;;;;;;;;;5052997;28;20289;-84
2022/01/20 10:42:00;;;;;;;8.40;3.35;;;;;;;;;;5052108;28;20220;-84
2022/01/20 10:44:29;;;;;;;6.75;2.42;;;;;;;;;;5052998;28;20202;-84
2022/01/20 10:46:58;;;;;;;6.05;2.28;;;;;;;;;;5052279;28;20221;-84
2022/01/20 10:49:33;;;;;;;6.78;2.17;;;;;;;;;;5052456;28;20259;-83
2022/01/20 10:52:05;;;;;;;8.82;3.40;;;;;;;;;;5052300;28;20223;-83
2022/01/20 10:54:41;;;;;;;7.75;2.67;;;;;;;;;;5052462;28;20202;-84
2022/01/20 10:57:09;;;;;;;7.47;2.42;;;;;;;;;;5052128;28;20214;-84
2022/01/20 10:59:51;;;;;;;3.65;1.90;;;;;;;;;;5052249;28;20241;-84
2022/01/20 11:02:20;;;;;;;5.90;3.10;;;;;;;;;;5052198;28;20197;-84
2022/01/20 11:04:49;;;;;;;4.90;2.00;;;;;;;;;;5052215;28;20205;-84
2022/01/20 11:07:16;;;;;;;7.90;3.53;;;;;;;;;;5052046;28;20601;-85
2022/01/20 11:09:46;;;;;;;5.45;2.95;;;;;;;;;;5052104;28;20205;-84
2022/01/20 11:12:18;;;;;;;4.80;1.83;;;;;;;;;;5052163;28;20182;-84
2022/01/20 11:14:49;;;;;;;7.03;2.45;;;;;;;;;;5052259;28;20641;-84
2022/01/20 11:17:22;;;;;;;5.70;2.67;;;;;;;;;;5052268;28;20309;-83
2022/01/20 11:19:56;;;;;;;5.47;2.53;;;;;;;;;;5052263;28;20193;-83
2022/01/20 11:22:23;;;;;;;3.08;1.98;;;;;;;;;;5057600;28;20231;-83
2022/01/20 11:25:00;;;;;;;6.68;2.78;;;;;;;;;;5072034;28;20197;-83
2022/01/20 11:27:46;;;;;;;5.35;1.95;;;;;;;;;;5072008;28;20220;-84
2022/01/20 11:30:18;;;;;;;3.90;2.25;;;;;;;;;;5072319;28;20592;-84
2022/01/20 11:32:57;;;;;;;9.02;2.70;;;;;;;;;;5072233;28;20224;-84
2022/01/20 11:35:35;;;;;;;6.18;3.05;;;;;;;;;;5072181;28;20204;-84
2022/01/20 11:38:02;;;;;;;4.40;2.90;;;;;;;;;;5072051;28;20231;-83
2022/01/20 11:40:29;;;;;;;4.35;2.03;;;;;;;;;;5071892;28;20177;-84
2022/01/20 11:42:59;;;;;;;3.80;2.00;;;;;;;;;;5072346;28;20208;-83
2022/01/20 11:45:34;;;;;;;5.30;2.38;;;;;;;;;;5075103;28;20278;-85
2022/01/20 11:48:17;;;;;;;4.40;1.77;;;;;;;;;;5075658;28;20748;-85
2022/01/20 11:50:45;;;;;;;6.78;2.70;;;;;;;;;;5075673;28;20665;-85
2022/01/20 11:53:14;;;;;;;7.15;3.13;;;;;;;;;;5063140;28;20608;-84
2022/01/20 11:55:48;;;;;;;3.97;2.28;;;;;;;;;;5056058;28;20210;-84
2022/01/20 11:58:19;;;;;;;3.67;1.73;;;;;;;;;;5054603;28;20214;-84
2022/01/20 12:01:00;;;;;;;6.50;2.22;;;;;;;;;;5055561;28;20201;-84
2022/01/20 12:03:28;;;;;;;4.97;2.33;;;;;;;;;;5055671;28;20220;-86
2022/01/20 12:05:59;;;;;;;8.55;2.38;;;;;;;;;;5055473;28;20209;-85
2022/01/20 12:08:27;;;;;;;8.43;2.95;;;;;;;;;;5055740;28;20226;-86
2022/01/20 12:11:04;;;;;;;11.80;2.70;;;;;;;;;;5056385;28;20671;-84
2022/01/20 12:13:32;;;;;;;7.25;3.33;;;;;;;;;;5055182;28;20201;-85
2022/01/20 12:16:04;;;;;;;4.78;2.55;;;;;;;;;;5055111;28;20592;-85
2022/01/20 12:18:33;;;;;;;4.75;3.03;;;;;;;;;;5055153;28;20221;-85
2022/01/20 12:21:02;;;;;;;7.38;2.20;;;;;;;;;;5059176;28;20212;-84
2022/01/20 12:23:30;;;;;;;7.05;2.30;;;;;;;;;;5070876;28;20270;-85
2022/01/20 12:26:04;;;;;;;3.72;1.85;;;;;;;;;;5075968;28;20193;-85
2022/01/20 12:28:31;;;;;;;6.03;3.15;;;;;;;;;;5074968;28;20228;-85
2022/01/20 12:31:05;;;;;;;2.47;1.83;;;;;;;;;;5075038;28;20226;-83
2022/01/20 12:33:35;;;;;;;3.17;1.80;;;;;;;;;;5075192;28;20209;-84
2022/01/20 12:36:04;;;;;;;8.40;2.47;;;;;;;;;;5074727;28;20276;-84
2022/01/20 12:38:35;;;;;;;3.28;2.10;;;;;;;;;;5074569;28;20770;-84
2022/01/20 12:41:06;;;;;;;2.80;1.75;;;;;;;;;;5074879;28;20205;-84
2022/01/20 12:43:44;;;;;;;6.03;1.77;;;;;;;;;;5074582;28;20201;-83
2022/01/20 12:46:15;;;;;;;8.68;2.47;;;;;;;;;;5074801;28;20217;-84
2022/01/20 12:48:54;;;;;;;3.13;1.80;;;;;;;;;;5075002;28;20229;-84
2022/01/20 12:51:32;;;;;;;8.07;2.20;;;;;;;;;;5074752;28;20205;-84
2022/01/20 12:54:05;;;;;;;3.28;1.27;;;;;;;;;;5055632;28;20590;-84
2022/01/20 12:56:35;;;;;;;3.15;1.52;;;;;;;;;;5054548;28;20634;-83
2022/01/20 12:59:03;;;;;;;5.82;2.42;;;;;;;;;;5054095;28;20182;-84
2022/01/20 13:01:42;;;;;;;2.78;1.50;;;;;;;;;;5054520;28;20228;-83
2022/01/20 13:04:14;;;;;;;1.33;1.10;;;;;;;;;;5054846;28;20205;-83
2022/01/20 13:06:52;;;;;;;1.92;1.63;;;;;;;;;;5054787;28;20280;-84
2022/01/20 13:09:23;;;;;;;4.43;1.52;;;;;;;;;;5054059;28;20204;-83
2022/01/20 13:12:02;;;;;;;8.45;2.75;;;;;;;;;;5054620;28;20197;-84
2022/01/20 13:14:39;;;;;;;3.92;2.15;;;;;;;;;;5054795;28;20210;-84
2022/01/20 13:17:11;;;;;;;3.67;2.13;;;;;;;;;;5054349;28;20255;-84
2022/01/20 13:19:45;;;;;;;8.18;2.70;;;;;;;;;;5054383;28;20202;-85
2022/01/20 13:22:41;;;;;;;6.70;1.63;;;;;;;;;;5054338;28;20193;-84
2022/01/20 13:25:14;;;;;;;7.47;3.28;;;;;;;;;;5054114;28;20206;-85
2022/01/20 13:27:58;;;;;;;7.25;2.20;;;;;;;;;;5054137;28;20226;-83
2022/01/20 13:30:40;;;;;;;3.30;2.30;;;;;;;;;;5038353;28;20213;-82
2022/01/20 13:33:49;;;;;;;4.35;2.90;;;;;;;;;;5053973;28;20229;-86
2022/01/20 13:36:41;;;;;;;6.88;2.75;;;;;;;;;;5047284;28;20217;-84
2022/01/20 13:39:31;;;;;;;9.07;2.05;;;;;;;;;;5053428;28;20212;-84
2022/01/20 13:45:16;;;;;;;5.43;2.65;;;;;;;;;;5050650;28;20281;-83
2022/01/20 13:47:52;;;;;;;2.70;1.67;;;;;;;;;;5053650;28;20279;-84
2022/01/20 13:50:24;;;;;;;2.95;2.65;;;;;;;;;;5053384;28;20291;-83
2022/01/20 13:52:52;;;;;;;7.80;2.28;;;;;;;;;;5053287;28;20589;-84
2022/01/20 13:55:49;;;;;;;8.02;3.40;;;;;;;;;;5053390;28;20194;-85
2022/01/20 13:58:26;;;;;;;4.15;2.20;;;;;;;;;;5053037;28;20287;-85
2022/01/20 14:00:55;;;;;;;2.40;1.52;;;;;;;;;;5053800;28;20224;-84
2022/01/20 14:03:26;;;;;;;8.68;2.05;;;;;;;;;;5053208;28;20226;-84
2022/01/20 14:05:57;;;;;;;5.47;2.00;;;;;;;;;;5053082;28;20288;-83
2022/01/20 14:08:25;;;;;;;5.57;2.53;;;;;;;;;;5053379;28;20240;-84
2022/01/20 14:10:59;;;;;;;5.78;1.75;;;;;;;;;;5053254;28;20650;-84
2022/01/20 14:13:28;;;;;;;5.80;1.48;;;;;;;;;;5053221;28;20247;-84
2022/01/20 14:15:57;;;;;;;5.32;1.85;;;;;;;;;;5052849;28;20202;-84
2022/01/20 14:18:30;;;;;;;2.67;1.65;;;;;;;;;;5053003;28;20222;-84
2022/01/20 14:21:02;;;;;;;5.75;1.90;;;;;;;;;;5053175;28;20678;-85
2022/01/20 14:23:35;;;;;;;9.73;3.30;;;;;;;;;;5067829;28;20291;-85
2022/01/20 14:26:08;;;;;;;10.63;4.38;;;;;;;;;;5073220;28;20204;-84
2022/01/20 14:28:41;;;;;;;8.40;3.85;;;;;;;;;;5073497;28;20216;-84
2022/01/20 14:31:09;;;;;;;5.15;2.70;;;;;;;;;;5072923;28;20268;-83
2022/01/20 14:33:36;;;;;;;2.55;2.28;;;;;;;;;;5072564;28;20684;-83
2022/01/20 14:36:06;;;;;;;4.25;1.95;;;;;;;;;;5076376;28;20196;-85
2022/01/20 14:38:33;;;;;;;2.67;1.75;;;;;;;;;;5082362;28;20221;-83
2022/01/20 14:41:00;;;;;;;7.75;3.03;;;;;;;;;;5076816;28;20203;-84
2022/01/20 14:43:28;;;;;;;4.13;2.20;;;;;;;;;;5077401;28;20216;-83
2022/01/20 14:45:55;;;;;;;3.35;2.08;;;;;;;;;;5078024;28;20672;-84
2022/01/20 14:48:22;;;;;;;5.28;2.33;;;;;;;;;;5079187;28;20229;-85
2022/01/20 14:50:52;;;;;;;10.52;3.47;;;;;;;;;;5075636;28;20197;-85
2022/01/20 14:53:21;;;;;;;6.60;2.10;;;;;;;;;;5061213;28;20201;-85
2022/01/20 14:55:48;;;;;;;3.92;2.22;;;;;;;;;;5056668;28;20205;-85
2022/01/20 14:58:16;;;;;;;5.10;2.22;;;;;;;;;;5056371;28;20218;-85
2022/01/20 15:00:54;;;;;;;10.82;2.50;;;;;;;;;;5054639;28;20292;-85
2022/01/20 15:03:21;;;;;;;3.72;1.83;;;;;;;;;;5055006;28;20198;-84
2022/01/20 15:05:49;;;;;;;3.08;1.73;;;;;;;;;;5053904;28;20217;-83
2022/01/20 15:08:16;;;;;;;5.03;2.55;;;;;;;;;;5052943;28;20764;-85
2022/01/20 15:10:46;;;;;;;3.97;2.00;;;;;;;;;;5053667;28;20557;-84
2022/01/20 15:51:07;;;;;;;6.53;2.10;;;;;;;;;;5020983;28;20207;-86
2022/01/20 15:53:35;;;;;;;6.20;2.28;;;;;;;;;;5022718;28;20207;-87
2022/01/20 15:56:03;;;;;;;3.17;2.20;;;;;;;;;;5023461;28;20213;-88
2022/01/20 15:58:30;;;;;;;4.35;1.50;;;;;;;;;;5020658;28;20242;-86
2022/01/20 16:00:58;;;;;;;8.07;2.72;;;;;;;;;;5021149;28;20203;-88
2022/01/20 16:03:26;;;;;;;6.68;1.73;;;;;;;;;;5021662;28;20211;-88
2022/01/20 16:05:53;;;;;;;4.53;2.58;;;;;;;;;;5022638;28;20205;-88
2022/01/20 16:08:22;;;;;;;8.30;3.10;;;;;;;;;;5020495;28;20644;-86
2022/01/20 16:10:49;;;;;;;4.53;2.00;;;;;;;;;;5021846;28;20230;-87
2022/01/20 16:13:17;;;;;;;3.38;2.35;;;;;;;;;;5022193;28;20202;-87
2022/01/20 16:15:44;;;;;;;8.05;2.03;;;;;;;;;;5024581;28;20211;-87
2022/01/20 16:18:15;;;;;;;4.70;2.13;;;;;;;;;;5023814;28;20234;-88